createdAt,value
2022-12-24T00:01:53.580Z,100634.55
2022-12-24T00:04:23.095Z,100638.95
2022-12-24T00:06:52.882Z,100638.75
2022-12-24T00:09:22.390Z,100638.73
2022-12-24T00:11:52.219Z,100634.66
2022-12-24T00:14:22.041Z,100648.40
2022-12-24T00:16:51.884Z,100644.52
2022-12-24T00:19:21.605Z,100650.37
2022-12-24T00:21:51.079Z,100671.97
2022-12-24T00:24:20.830Z,100657.52
2022-12-24T00:26:50.635Z,100661.18
2022-12-24T00:29:20.953Z,100668.02
2022-12-24T00:31:50.968Z,100660.58
2022-12-24T00:34:20.712Z,100670.72
2022-12-24T00:36:50.756Z,100670.20
2022-12-24T00:39:20.355Z,100689.19
2022-12-24T00:41:50.137Z,100681.14
2022-12-24T00:44:19.910Z,100685.61
2022-12-24T00:46:49.650Z,100689.50
2022-12-24T00:49:19.157Z,100695.92
2022-12-24T00:51:49.251Z,100695.58
2022-12-24T00:54:18.973Z,100713.92
2022-12-24T00:56:48.698Z,100711.22
2022-12-24T00:59:18.252Z,100722.13
2022-12-24T01:01:48.540Z,100714.98
2022-12-24T01:04:36.011Z,100727.72
2022-12-24T01:07:05.764Z,100725.16
2022-12-24T01:09:35.683Z,100730.44
2022-12-24T01:12:06.767Z,100728.56
2022-12-24T01:14:37.463Z,100731.48
2022-12-24T01:17:07.641Z,100748.34
2022-12-24T01:19:37.691Z,100749.61
2022-12-24T01:22:09.947Z,100751.81
2022-12-24T01:24:41.492Z,100749.92
2022-12-24T01:27:11.343Z,100752.33
2022-12-24T01:29:41.724Z,100757.79
2022-12-24T01:32:12.173Z,100755.91
2022-12-24T01:34:42.203Z,100763.34
2022-12-24T01:37:11.973Z,100757.82
2022-12-24T01:39:41.693Z,100762.73
2022-12-24T01:42:37.449Z,100765.00
2022-12-24T01:45:43.212Z,100768.33
2022-12-24T01:48:30.992Z,100769.93
2022-12-24T01:51:03.772Z,100779.66
2022-12-24T01:53:36.611Z,100788.73
2022-12-24T01:56:08.942Z,100785.91
2022-12-24T01:58:43.043Z,100792.83
2022-12-24T02:01:13.001Z,100794.88
2022-12-24T02:03:43.035Z,100794.88
2022-12-24T02:06:18.019Z,100787.91
2022-12-24T02:08:47.767Z,100789.53
2022-12-24T02:11:19.739Z,100793.25
2022-12-24T02:13:54.878Z,100796.77
2022-12-24T02:16:41.720Z,100803.11
2022-12-24T02:19:47.341Z,100828.19
2022-12-24T02:22:20.087Z,100828.19
2022-12-24T02:25:15.068Z,100829.45
2022-12-24T02:28:02.845Z,100818.45
2022-12-24T02:30:35.124Z,100823.44
2022-12-24T02:33:19.458Z,100811.91
2022-12-24T02:35:52.700Z,100811.91
2022-12-24T02:38:25.380Z,100826.92
2022-12-24T02:41:00.858Z,100826.92
2022-12-24T02:43:36.169Z,100839.42
2022-12-24T02:46:16.546Z,100831.02
2022-12-24T02:48:49.459Z,100836.11
2022-12-24T02:54:44.139Z,100822.76
2022-12-24T02:57:19.787Z,100830.30
2022-12-24T03:00:01.950Z,100834.06
2022-12-24T03:02:37.440Z,100826.11
2022-12-24T03:05:20.066Z,100830.50
2022-12-24T03:08:07.314Z,100830.50
2022-12-24T03:13:20.353Z,100836.69
2022-12-24T03:15:51.716Z,100839.06
2022-12-24T03:18:24.274Z,100843.97
2022-12-24T03:21:14.811Z,100846.54
2022-12-24T03:23:44.806Z,100846.22
2022-12-24T03:26:16.544Z,100844.13
2022-12-24T03:28:47.495Z,100842.83
2022-12-24T03:31:18.688Z,100856.91
2022-12-24T03:33:48.802Z,100864.72
2022-12-24T03:36:18.724Z,100851.47
2022-12-24T03:38:48.765Z,100856.39
2022-12-24T03:41:18.492Z,100858.63
2022-12-24T03:43:48.306Z,100859.16
2022-12-24T03:46:18.222Z,100859.16
2022-12-24T03:48:47.999Z,100860.02
2022-12-24T03:51:20.721Z,100865.83
2022-12-24T03:53:50.566Z,100862.68
2022-12-24T03:56:21.112Z,100866.04
2022-12-24T03:58:51.100Z,100869.77
2022-12-24T04:01:21.525Z,100870.58
2022-12-24T04:03:51.685Z,100869.57
2022-12-24T04:06:21.169Z,100867.94
2022-12-24T04:08:50.900Z,100873.91
2022-12-24T04:11:20.474Z,100879.00
2022-12-24T04:13:50.208Z,100873.61
2022-12-24T04:16:19.975Z,100884.03
2022-12-24T04:18:49.996Z,100884.03
2022-12-24T04:21:19.781Z,100878.97
2022-12-24T04:23:49.840Z,100875.59
2022-12-24T04:26:19.969Z,100879.52
2022-12-24T04:28:49.728Z,100886.34
2022-12-24T04:31:19.951Z,100883.80
2022-12-24T04:33:51.653Z,100883.80
2022-12-24T04:36:21.742Z,100894.66
2022-12-24T04:38:51.650Z,100894.67
2022-12-24T04:41:24.592Z,100897.95
2022-12-24T04:43:55.583Z,100897.88
2022-12-24T04:46:30.591Z,100894.67
2022-12-24T04:49:01.559Z,100896.20
2022-12-24T04:51:31.358Z,100892.25
2022-12-24T04:54:01.138Z,100895.50
2022-12-24T04:56:33.084Z,100901.63
2022-12-24T04:59:03.105Z,100901.52
2022-12-24T05:01:34.426Z,100901.52
2022-12-24T05:04:06.937Z,100909.94
2022-12-24T05:06:36.685Z,100912.27
2022-12-24T05:09:06.491Z,100914.73
2022-12-24T05:11:36.224Z,100916.97
2022-12-24T05:14:08.046Z,100916.00
2022-12-24T05:16:38.702Z,100913.72
2022-12-24T05:19:08.497Z,100906.97
2022-12-24T05:21:38.278Z,100903.82
2022-12-24T05:24:29.520Z,100913.72
2022-12-24T05:27:00.315Z,100907.39
2022-12-24T05:29:30.080Z,100912.59
2022-12-24T05:31:59.569Z,100919.03
2022-12-24T05:34:29.041Z,100918.26
2022-12-24T05:36:58.800Z,100921.83
2022-12-24T05:39:28.858Z,100913.83
2022-12-24T05:41:58.924Z,100917.70
2022-12-24T05:44:28.805Z,100917.70
2022-12-24T05:46:58.582Z,100918.56
2022-12-24T05:49:28.890Z,100918.56
2022-12-24T05:51:58.657Z,100919.04
2022-12-24T05:54:28.167Z,100921.13
2022-12-24T05:56:57.920Z,100932.69
2022-12-24T05:59:27.664Z,100930.64
2022-12-24T06:01:57.582Z,100935.99
2022-12-24T06:04:29.153Z,100941.50
2022-12-24T06:06:58.610Z,100950.27
2022-12-24T06:09:28.684Z,100950.21
2022-12-24T06:11:58.392Z,100958.57
2022-12-24T06:14:28.002Z,100951.54
2022-12-24T06:16:57.768Z,100952.17
2022-12-24T06:19:27.578Z,100946.75
2022-12-24T06:21:57.370Z,100962.69
2022-12-24T06:24:26.857Z,100969.41
2022-12-24T06:26:56.635Z,100970.70
2022-12-24T06:29:27.423Z,100962.52
2022-12-24T06:31:57.383Z,100972.06
2022-12-24T06:34:26.987Z,100975.14
2022-12-24T06:36:56.706Z,100976.51
2022-12-24T06:39:26.826Z,100987.48
2022-12-24T06:41:56.660Z,100983.13
2022-12-24T06:44:26.459Z,100980.37
2022-12-24T06:46:56.344Z,100980.37
2022-12-24T06:49:26.173Z,100981.21
2022-12-24T06:51:56.187Z,100996.23
2022-12-24T06:54:25.739Z,100982.44
2022-12-24T06:56:57.862Z,100986.42
2022-12-24T06:59:26.917Z,100982.59
2022-12-24T07:01:56.754Z,100991.67
2022-12-24T07:04:26.608Z,100991.78
2022-12-24T07:06:56.701Z,100993.70
2022-12-24T07:09:26.458Z,100993.70
2022-12-24T07:11:56.214Z,100997.75
2022-12-24T07:14:25.949Z,100998.72
2022-12-24T07:16:59.341Z,101008.20
2022-12-24T07:19:28.632Z,101022.02
2022-12-24T07:21:58.434Z,101021.52
2022-12-24T07:24:28.096Z,101030.81
2022-12-24T07:26:57.868Z,101020.31
2022-12-24T07:29:27.609Z,101033.61
2022-12-24T07:31:57.390Z,101026.63
2022-12-24T07:34:27.592Z,101020.22
2022-12-24T07:36:57.389Z,101029.34
2022-12-24T07:39:27.199Z,101037.53
2022-12-24T07:41:56.946Z,101045.66
2022-12-24T07:44:26.606Z,101045.61
2022-12-24T07:46:56.471Z,101050.34
2022-12-24T07:49:26.397Z,101062.23
2022-12-24T07:51:56.224Z,101070.04
2022-12-24T07:54:26.005Z,101068.99
2022-12-24T07:56:55.751Z,101072.52
2022-12-24T07:59:25.309Z,101082.83
2022-12-24T08:01:55.263Z,101088.55
2022-12-24T08:04:24.802Z,101096.70
2022-12-24T08:06:54.517Z,101101.54
2022-12-24T08:09:24.579Z,101096.92
2022-12-24T08:11:54.380Z,101105.05
2022-12-24T08:14:24.542Z,101106.12
2022-12-24T08:16:54.424Z,101115.03
2022-12-24T08:19:24.724Z,101120.78
2022-12-24T08:21:54.548Z,101132.04
2022-12-24T08:24:24.704Z,101135.64
2022-12-24T08:26:54.425Z,101138.28
2022-12-24T08:29:24.233Z,101133.20
2022-12-24T08:31:54.059Z,101137.27
2022-12-24T08:34:24.128Z,101135.94
2022-12-24T08:36:53.905Z,101139.06
2022-12-24T08:39:23.661Z,101145.22
2022-12-24T08:41:53.378Z,101152.65
2022-12-24T08:44:22.855Z,101157.84
2022-12-24T08:46:52.649Z,101159.96
2022-12-24T08:49:22.526Z,101162.72
2022-12-24T08:51:52.857Z,101160.72
2022-12-24T08:54:23.612Z,101159.84
2022-12-24T08:56:53.467Z,101172.41
2022-12-24T08:59:23.297Z,101157.94
2022-12-24T09:01:53.273Z,101169.88
2022-12-24T09:04:22.779Z,101169.19
2022-12-24T09:06:52.539Z,101181.91
2022-12-24T09:09:22.321Z,101179.08
2022-12-24T09:11:53.267Z,101184.11
2022-12-24T09:14:23.386Z,101187.77
2022-12-24T09:16:53.279Z,101183.91
2022-12-24T09:19:23.110Z,101184.03
2022-12-24T09:21:53.224Z,101189.86
2022-12-24T09:24:23.057Z,101200.25
2022-12-24T09:26:57.761Z,101193.64
2022-12-24T09:29:24.293Z,101193.17
2022-12-24T09:31:55.305Z,101203.13
2022-12-24T09:34:30.422Z,101203.66
2022-12-24T09:36:58.283Z,101203.61
2022-12-24T09:39:28.125Z,101214.08
2022-12-24T09:42:10.078Z,101230.09
2022-12-24T09:45:03.656Z,101230.09
2022-12-24T09:47:42.343Z,101232.34
2022-12-24T09:50:28.755Z,101231.23
2022-12-24T09:53:01.722Z,101236.59
2022-12-24T09:55:46.104Z,101234.88
2022-12-24T09:58:30.044Z,101239.39
2022-12-24T10:01:00.212Z,101245.03
2022-12-24T10:03:30.151Z,101249.38
2022-12-24T10:06:08.095Z,101252.11
2022-12-24T10:08:43.803Z,101256.60
2022-12-24T10:11:22.156Z,101263.83
2022-12-24T10:14:09.586Z,101270.98
2022-12-24T10:16:42.782Z,101274.05
2022-12-24T10:19:31.842Z,101271.04
2022-12-24T10:22:09.832Z,101271.04
2022-12-24T10:24:49.843Z,101267.44
2022-12-24T10:27:15.708Z,101260.42
2022-12-24T10:29:48.835Z,101263.98
2022-12-24T10:32:24.634Z,101271.53
2022-12-24T10:35:01.529Z,101271.53
2022-12-24T10:37:31.655Z,101264.19
2022-12-24T10:40:03.354Z,101271.05
2022-12-24T10:42:42.153Z,101258.77
2022-12-24T10:45:13.901Z,101256.30
2022-12-24T10:47:46.918Z,101257.99
2022-12-24T10:50:21.869Z,101246.95
2022-12-24T10:52:54.411Z,101246.95
2022-12-24T10:55:26.244Z,101269.76
2022-12-24T10:58:06.992Z,101267.23
2022-12-24T11:00:38.753Z,101267.23
2022-12-24T11:03:23.481Z,101273.05
2022-12-24T11:06:14.163Z,101274.63
2022-12-24T11:08:45.789Z,101275.02
2022-12-24T11:11:21.072Z,101277.09
2022-12-24T11:13:54.155Z,101273.45
2022-12-24T11:16:27.089Z,101281.30
2022-12-24T11:18:59.750Z,101277.11
2022-12-24T11:21:32.232Z,101277.11
2022-12-24T11:24:23.032Z,101279.38
2022-12-24T11:26:52.858Z,101280.12
2022-12-24T11:29:25.533Z,101275.69
2022-12-24T11:32:12.849Z,101269.70
2022-12-24T11:34:46.862Z,101274.86
2022-12-24T11:37:19.662Z,101275.95
2022-12-24T11:39:52.736Z,101279.41
2022-12-24T11:42:31.245Z,101282.65
2022-12-24T11:45:03.926Z,101282.65
2022-12-24T11:47:39.297Z,101283.64
2022-12-24T11:50:23.863Z,101288.66
2022-12-24T11:53:08.681Z,101280.17
2022-12-24T11:55:47.312Z,101295.90
2022-12-24T11:58:45.184Z,101300.86
2022-12-24T12:01:20.790Z,101298.36
2022-12-24T12:04:09.969Z,101298.31
2022-12-24T12:06:42.582Z,101288.39
2022-12-24T12:09:33.182Z,101290.76
2022-12-24T12:12:14.992Z,101300.17
2022-12-24T12:14:47.840Z,101296.03
2022-12-24T12:17:29.232Z,101295.20
2022-12-24T12:20:02.064Z,101294.61
2022-12-24T12:22:46.703Z,101300.44
2022-12-24T12:25:36.774Z,101306.89
2022-12-24T12:28:10.924Z,101310.63
2022-12-24T12:30:43.711Z,101310.63
2022-12-24T12:33:20.708Z,101310.34
2022-12-24T12:35:51.254Z,101310.41
2022-12-24T12:38:28.641Z,101310.08
2022-12-24T12:41:16.250Z,101324.52
2022-12-24T12:44:00.952Z,101320.78
2022-12-24T12:46:42.632Z,101317.10
2022-12-24T12:49:27.699Z,101326.39
2022-12-24T12:52:18.491Z,101326.62
2022-12-24T12:55:00.421Z,101330.91
2022-12-24T12:57:32.939Z,101331.96
2022-12-24T13:00:08.047Z,101333.98
2022-12-24T13:03:12.517Z,101330.02
2022-12-24T13:06:02.958Z,101334.44
2022-12-24T13:08:44.474Z,101339.22
2022-12-24T13:11:35.131Z,101345.53
2022-12-24T13:14:20.067Z,101348.30
2022-12-24T13:17:10.789Z,101352.61
2022-12-24T13:19:51.670Z,101365.87
2022-12-24T13:22:23.470Z,101365.87
2022-12-24T13:24:55.344Z,101364.72
2022-12-24T13:27:32.685Z,101364.72
2022-12-24T13:30:24.618Z,101375.08
2022-12-24T13:32:55.945Z,101375.61
2022-12-24T13:35:33.548Z,101379.12
2022-12-24T13:38:19.108Z,101379.12
2022-12-24T13:40:48.877Z,101372.80
2022-12-24T13:43:18.624Z,101374.00
2022-12-24T13:45:51.652Z,101371.97
2022-12-24T13:48:33.267Z,101375.54
2022-12-24T13:51:20.850Z,101380.16
2022-12-24T13:53:52.452Z,101385.30
2022-12-24T13:56:25.139Z,101384.93
2022-12-24T13:59:12.731Z,101391.99
2022-12-24T14:01:45.230Z,101386.47
2022-12-24T14:04:21.249Z,101385.69
2022-12-24T14:06:53.555Z,101391.48
2022-12-24T14:09:25.373Z,101397.92
2022-12-24T14:12:03.647Z,101404.23
2022-12-24T14:14:36.546Z,101412.58
2022-12-24T14:17:21.655Z,101413.13
2022-12-24T14:20:00.470Z,101420.30
2022-12-24T14:22:39.153Z,101419.98
2022-12-24T14:25:17.572Z,101423.16
2022-12-24T14:27:50.578Z,101423.14
2022-12-24T14:30:26.315Z,101424.28
2022-12-24T14:32:56.884Z,101432.25
2022-12-24T14:35:29.606Z,101432.52
2022-12-24T14:38:02.668Z,101430.02
2022-12-24T14:40:35.156Z,101430.73
2022-12-24T14:43:10.771Z,101426.26
2022-12-24T14:45:59.947Z,101423.87
2022-12-24T14:48:47.697Z,101435.95
2022-12-24T14:51:23.062Z,101439.79
2022-12-24T14:53:59.164Z,101441.88
2022-12-24T14:56:28.601Z,101438.03
2022-12-24T14:59:00.149Z,101435.25
2022-12-24T15:01:34.256Z,101447.49
2022-12-24T15:04:18.561Z,101449.27
2022-12-24T15:06:52.443Z,101461.64
2022-12-24T15:09:29.342Z,101466.98
2022-12-24T15:12:03.230Z,101468.83
2022-12-24T15:14:36.074Z,101457.23
2022-12-24T15:17:08.380Z,101471.50
2022-12-24T15:19:41.657Z,101467.63
2022-12-24T15:22:14.779Z,101469.83
2022-12-24T15:24:49.144Z,101469.83
2022-12-24T15:27:27.505Z,101468.39
2022-12-24T15:29:58.974Z,101478.69
2022-12-24T15:32:28.493Z,101482.80
2022-12-24T15:34:59.892Z,101481.55
2022-12-24T15:37:33.178Z,101483.83
2022-12-24T15:40:20.556Z,101483.83
2022-12-24T15:42:51.076Z,101482.76
2022-12-24T15:45:28.423Z,101489.64
2022-12-24T15:48:01.366Z,101488.29
2022-12-24T15:50:39.337Z,101499.84
2022-12-24T15:53:19.843Z,101499.84
2022-12-24T15:55:46.192Z,101488.86
2022-12-24T15:58:27.419Z,101497.26
2022-12-24T16:01:08.988Z,101499.38
2022-12-24T16:03:41.479Z,101499.80
2022-12-24T16:06:12.872Z,101502.37
2022-12-24T16:08:43.640Z,101503.80
2022-12-24T16:11:24.985Z,101510.05
2022-12-24T16:14:17.139Z,101501.52
2022-12-24T16:16:52.728Z,101509.54
2022-12-24T16:19:29.394Z,101507.88
2022-12-24T16:22:07.615Z,101511.12
2022-12-24T16:24:37.408Z,101509.20
2022-12-24T16:27:10.183Z,101506.30
2022-12-24T16:29:40.317Z,101506.41
2022-12-24T16:32:32.744Z,101513.36
2022-12-24T16:35:04.870Z,101516.86
2022-12-24T16:37:34.924Z,101513.46
2022-12-24T16:40:04.915Z,101520.97
2022-12-24T16:42:52.427Z,101519.94
2022-12-24T16:45:21.865Z,101519.94
2022-12-24T16:47:51.675Z,101525.94
2022-12-24T16:50:21.421Z,101523.17
2022-12-24T16:52:51.555Z,101538.66
2022-12-24T16:55:21.039Z,101536.30
2022-12-24T16:57:51.228Z,101525.56
2022-12-24T17:00:25.380Z,101526.82
2022-12-24T17:02:55.551Z,101528.28
2022-12-24T17:05:25.971Z,101531.13
2022-12-24T17:07:56.004Z,101528.07
2022-12-24T17:10:25.741Z,101531.75
2022-12-24T17:12:55.902Z,101528.77
2022-12-24T17:15:25.466Z,101520.70
2022-12-24T17:17:55.542Z,101517.19
2022-12-24T17:20:25.594Z,101521.67
2022-12-24T17:22:55.631Z,101521.63
2022-12-24T17:25:25.375Z,101520.03
2022-12-24T17:27:55.419Z,101518.73
2022-12-24T17:30:25.556Z,101525.78
2022-12-24T17:32:55.577Z,101535.09
2022-12-24T17:35:25.346Z,101528.86
2022-12-24T17:37:55.085Z,101530.00
2022-12-24T17:40:25.198Z,101533.55
2022-12-24T17:42:55.012Z,101534.09
2022-12-24T17:45:24.541Z,101535.68
2022-12-24T17:47:54.330Z,101535.59
2022-12-24T17:50:23.891Z,101532.42
2022-12-24T17:52:53.689Z,101528.10
2022-12-24T17:55:23.720Z,101522.88
2022-12-24T17:57:53.581Z,101517.70
2022-12-24T18:00:26.836Z,101517.55
2022-12-24T18:02:54.986Z,101518.98
2022-12-24T18:05:24.573Z,101523.84
2022-12-24T18:07:54.337Z,101514.50
2022-12-24T18:10:24.275Z,101523.39
2022-12-24T18:12:54.010Z,101518.25
2022-12-24T18:15:24.366Z,101522.72
2022-12-24T18:17:55.302Z,101524.75
2022-12-24T18:20:25.149Z,101524.75
2022-12-24T18:22:54.882Z,101516.08
2022-12-24T18:25:25.178Z,101527.83
2022-12-24T18:27:54.978Z,101521.48
2022-12-24T18:30:27.892Z,101530.48
2022-12-24T18:32:56.612Z,101537.30
2022-12-24T18:35:26.036Z,101513.56
2022-12-24T18:37:55.890Z,101513.56
2022-12-24T18:40:25.945Z,101543.27
2022-12-24T18:42:55.785Z,101545.05
2022-12-24T18:45:25.727Z,101540.78
2022-12-24T18:47:55.761Z,101536.66
2022-12-24T18:50:26.085Z,101527.25
2022-12-24T18:52:56.180Z,101519.97
2022-12-24T18:55:25.950Z,101520.45
2022-12-24T18:57:55.789Z,101526.98
2022-12-24T19:00:25.552Z,101522.75
2022-12-24T19:02:55.831Z,101526.13
2022-12-24T19:05:25.550Z,101526.83
2022-12-24T19:07:55.337Z,101534.16
2022-12-24T19:10:25.241Z,101534.50
2022-12-24T19:12:55.014Z,101541.47
2022-12-24T19:15:24.722Z,101537.95
2022-12-24T19:17:58.553Z,101544.02
2022-12-24T19:20:28.615Z,101541.94
2022-12-24T19:22:58.401Z,101539.05
2022-12-24T19:25:28.173Z,101543.64
2022-12-24T19:27:57.913Z,101535.98
2022-12-24T19:30:27.450Z,101539.41
2022-12-24T19:32:57.510Z,101539.42
2022-12-24T19:35:28.415Z,101538.86
2022-12-24T19:37:59.047Z,101538.86
2022-12-24T19:40:28.894Z,101543.30
2022-12-24T19:42:59.047Z,101543.79
2022-12-24T19:45:29.229Z,101539.70
2022-12-24T19:47:59.365Z,101540.04
2022-12-24T19:50:29.877Z,101532.91
2022-12-24T19:52:59.989Z,101532.39
2022-12-24T19:55:29.761Z,101528.34
2022-12-24T19:57:59.862Z,101526.77
2022-12-24T20:00:29.733Z,101530.22
2022-12-24T20:02:59.970Z,101536.66
2022-12-24T20:05:29.705Z,101543.77
2022-12-24T20:07:59.914Z,101535.63
2022-12-24T20:10:29.685Z,101540.80
2022-12-24T20:13:05.733Z,101555.16
2022-12-24T20:15:31.156Z,101558.54
2022-12-24T20:18:01.289Z,101564.28
2022-12-24T20:20:32.842Z,101561.44
2022-12-24T20:23:04.289Z,101556.09
2022-12-24T20:25:38.274Z,101567.70
2022-12-24T20:28:09.757Z,101568.16
2022-12-24T20:30:40.298Z,101583.45
2022-12-24T20:33:10.324Z,101573.23
2022-12-24T20:35:40.232Z,101568.78
2022-12-24T20:38:10.042Z,101576.24
2022-12-24T20:40:44.301Z,101585.22
2022-12-24T20:43:14.722Z,101580.10
2022-12-24T20:45:47.576Z,101582.57
2022-12-24T20:48:17.622Z,101574.73
2022-12-24T20:50:47.423Z,101565.36
2022-12-24T20:53:16.912Z,101563.95
2022-12-24T20:55:48.011Z,101567.05
2022-12-24T20:58:20.224Z,101557.15
2022-12-24T21:00:51.687Z,101549.69
2022-12-24T21:03:21.292Z,101552.08
2022-12-24T21:05:51.077Z,101541.89
2022-12-24T21:08:20.793Z,101534.02
2022-12-24T21:10:52.172Z,101536.12
2022-12-24T21:13:21.893Z,101545.89
2022-12-24T21:15:51.649Z,101541.10
2022-12-24T21:18:22.184Z,101536.81
2022-12-24T21:20:52.005Z,101534.01
2022-12-24T21:23:21.533Z,101534.20
2022-12-24T21:26:02.104Z,101530.41
2022-12-24T21:28:33.323Z,101526.27
2022-12-24T21:31:03.185Z,101522.60
2022-12-24T21:33:37.944Z,101523.45
2022-12-24T21:36:04.712Z,101524.76
2022-12-24T21:38:34.840Z,101514.26
2022-12-24T21:41:07.928Z,101516.51
2022-12-24T21:43:38.003Z,101497.87
2022-12-24T21:46:10.072Z,101497.25
2022-12-24T21:48:57.943Z,101506.69
2022-12-24T21:51:28.790Z,101513.78
2022-12-24T21:54:16.461Z,101508.77
2022-12-24T21:57:03.767Z,101508.14
2022-12-24T21:59:33.516Z,101496.61
2022-12-24T22:02:03.660Z,101496.61
2022-12-24T22:04:33.857Z,101486.58
2022-12-24T22:07:21.093Z,101486.58
2022-12-24T22:10:08.115Z,101495.25
2022-12-24T22:12:38.096Z,101497.91
2022-12-24T22:15:09.023Z,101496.70
2022-12-24T22:17:38.814Z,101501.06
2022-12-24T22:20:09.440Z,101509.23
2022-12-24T22:22:39.369Z,101513.88
2022-12-24T22:25:09.132Z,101510.67
2022-12-24T22:27:39.142Z,101502.26
2022-12-24T22:30:09.481Z,101496.81
2022-12-24T22:32:39.269Z,101506.27
2022-12-24T22:35:09.283Z,101507.66
2022-12-24T22:37:39.166Z,101501.34
2022-12-24T22:40:11.287Z,101504.25
2022-12-24T22:42:41.410Z,101506.41
2022-12-24T22:45:18.367Z,101508.10
2022-12-24T22:47:44.431Z,101503.55
2022-12-24T22:50:15.091Z,101506.45
2022-12-24T22:52:45.382Z,101504.25
2022-12-24T22:55:15.041Z,101510.72
2022-12-24T22:57:45.168Z,101503.58
2022-12-24T23:00:20.618Z,101503.58
2022-12-24T23:02:50.561Z,101503.58
2022-12-24T23:05:20.221Z,101502.84
2022-12-24T23:07:49.927Z,101508.69
2022-12-24T23:10:19.362Z,101503.92
2022-12-24T23:13:12.756Z,101506.30
2022-12-24T23:15:39.421Z,101500.82
2022-12-24T23:18:09.454Z,101510.67
2022-12-24T23:20:46.929Z,101521.63
2022-12-24T23:23:17.122Z,101526.04
2022-12-24T23:25:46.873Z,101530.71
2022-12-24T23:28:16.615Z,101536.08
2022-12-24T23:30:46.896Z,101536.03
2022-12-24T23:33:16.623Z,101534.34
2022-12-24T23:35:46.370Z,101536.92
2022-12-24T23:38:16.072Z,101542.03
2022-12-24T23:40:45.827Z,101547.81
2022-12-24T23:43:16.180Z,101551.33
2022-12-24T23:45:50.304Z,101551.33
2022-12-24T23:48:20.749Z,101549.27
2022-12-24T23:50:50.736Z,101540.58
2022-12-24T23:53:20.818Z,101520.17
2022-12-24T23:55:50.575Z,101531.90
2022-12-24T23:58:20.372Z,101528.67
